KAEX

Alexandria International Airport

Alexandria, Louisiana, USA
METAR KAEX 260325Z 07005KT 7SM -RA SCT004 BKN019 OVC031 13/13 A3002 RMK AO2 P0008 T01330133
Observed Flight Rules
Feb-26 @ 03:25 UTC (5 minutes ago) Marginal Visual Flight Rules
Wind Visibility Clouds Conditions
70° at 5 knots 7 miles
  • Scattered at 400' AGL
  • Broken at 1,900' AGL
  • Overcast at 3,100' AGL
  • Light Rain
Temperatures Readings Precipitation
Current 13°C / 55°F
Dewpoint 13°C / 55°F
Humidity 100%
Altimeter 30.02" Hg
Pressure 1017 hPa
Elevation 27
Current Rain 0.08
METAR KAEX 260325Z 07005KT 7SM -RA SCT004 BKN019 OVC031 13/13 A3002 RMK AO2 P0008 T01330133
Observed Flight Rules
Feb-26 @ 03:25 UTC
(5 minutes ago)
MVFR
Wind Visibility
70° at 5 knots 7 miles
Clouds
  • Scattered at 400' AGL
  • Broken at 1,900' AGL
  • Overcast at 3,100' AGL
Conditions
  • Light Rain
Temperature Dewpoint
13°C / 55°F 13°C / 55°F
Humidity Altimeter Pressure
100% 30.02" Hg 1017 hPa
Current Rain
0.08